Boyd, Wisconsin
Current Conditions -  °F | °C
As of 9:56 AM on Thursday 18 Dec 2014 (Local Time) from KEAU Reporting Station
Overcast Overcast  
Wind Chill: 17°   Ceiling: 1200
Heat Index: 23°   Visibility: 10mi
Dew Point: 17°   Wind: 5mph
Humidity: 78%   Direction: 110°ESE
Pressure: 30.3"   Gusts: NA
Location:  44.95°N, 91.03°W
Report Text: KEAU 181556Z 11004KT 10SM OVC012 M05/M08 A3030 RMK AO2 SLP277 T10501083
Loading
Personal Weather Stations






























Interactive Weather Map New forecast layout! Learn more

10-Day Weather Forecast

Advertisements
Track Severe Weather on mobile